sensor_id;sensor_type;location;lat;lon;timestamp;temperature;humidity
51500;DHT22;39101;53.478;6.158;2024-03-17T00:02:18;5.00;99.90
51500;DHT22;39101;53.478;6.158;2024-03-17T00:04:47;5.00;99.90
51500;DHT22;39101;53.478;6.158;2024-03-17T00:07:13;4.90;99.90
51500;DHT22;39101;53.478;6.158;2024-03-17T00:09:39;4.80;99.90
51500;DHT22;39101;53.478;6.158;2024-03-17T00:12:06;4.80;99.90
51500;DHT22;39101;53.478;6.158;2024-03-17T00:14:33;4.70;99.90
51500;DHT22;39101;53.478;6.158;2024-03-17T00:17:00;4.60;99.90
51500;DHT22;39101;53.478;6.158;2024-03-17T00:19:26;4.60;99.90
51500;DHT22;39101;53.478;6.158;2024-03-17T00:21:52;4.50;99.90
51500;DHT22;39101;53.478;6.158;2024-03-17T00:24:19;4.50;99.90
51500;DHT22;39101;53.478;6.158;2024-03-17T00:26:45;4.50;99.90
51500;DHT22;39101;53.478;6.158;2024-03-17T00:29:11;4.40;99.90
51500;DHT22;39101;53.478;6.158;2024-03-17T00:31:37;4.30;99.90
51500;DHT22;39101;53.478;6.158;2024-03-17T00:34:03;4.30;99.90
51500;DHT22;39101;53.478;6.158;2024-03-17T00:36:29;4.20;99.90
51500;DHT22;39101;53.478;6.158;2024-03-17T00:38:56;4.10;99.90
51500;DHT22;39101;53.478;6.158;2024-03-17T00:41:22;4.10;99.90
51500;DHT22;39101;53.478;6.158;2024-03-17T00:43:51;4.10;99.90
51500;DHT22;39101;53.478;6.158;2024-03-17T00:46:20;4.10;99.90
51500;DHT22;39101;53.478;6.158;2024-03-17T00:48:49;4.00;99.90
51500;DHT22;39101;53.478;6.158;2024-03-17T00:51:15;4.00;99.90
51500;DHT22;39101;53.478;6.158;2024-03-17T00:53:41;3.90;99.90
51500;DHT22;39101;53.478;6.158;2024-03-17T00:56:07;3.00;99.90
51500;DHT22;39101;53.478;6.158;2024-03-17T00:58:33;3.90;99.90
51500;DHT22;39101;53.478;6.158;2024-03-17T01:00:59;3.80;99.90
51500;DHT22;39101;53.478;6.158;2024-03-17T01:03:26;3.90;99.90
51500;DHT22;39101;53.478;6.158;2024-03-17T01:05:53;3.80;99.90
51500;DHT22;39101;53.478;6.158;2024-03-17T01:08:19;3.80;99.90
51500;DHT22;39101;53.478;6.158;2024-03-17T01:10:46;3.70;99.90
51500;DHT22;39101;53.478;6.158;2024-03-17T01:13:15;3.70;99.90
51500;DHT22;39101;53.478;6.158;2024-03-17T01:15:41;3.70;99.90
51500;DHT22;39101;53.478;6.158;2024-03-17T01:18:07;3.60;99.90
51500;DHT22;39101;53.478;6.158;2024-03-17T01:20:37;3.80;99.90
51500;DHT22;39101;53.478;6.158;2024-03-17T01:23:04;3.60;99.90
51500;DHT22;39101;53.478;6.158;2024-03-17T01:25:30;3.50;99.90
51500;DHT22;39101;53.478;6.158;2024-03-17T01:27:56;3.50;99.90
51500;DHT22;39101;53.478;6.158;2024-03-17T01:30:23;3.50;99.90
51500;DHT22;39101;53.478;6.158;2024-03-17T01:32:49;3.50;99.90
51500;DHT22;39101;53.478;6.158;2024-03-17T01:35:15;3.40;99.90
51500;DHT22;39101;53.478;6.158;2024-03-17T01:37:42;3.40;99.90
51500;DHT22;39101;53.478;6.158;2024-03-17T01:40:08;3.40;99.90
51500;DHT22;39101;53.478;6.158;2024-03-17T01:42:35;3.30;99.90
51500;DHT22;39101;53.478;6.158;2024-03-17T01:45:01;3.40;99.90
51500;DHT22;39101;53.478;6.158;2024-03-17T01:47:26;3.20;99.90
51500;DHT22;39101;53.478;6.158;2024-03-17T01:49:53;3.20;99.90
51500;DHT22;39101;53.478;6.158;2024-03-17T01:52:20;3.30;99.90
51500;DHT22;39101;53.478;6.158;2024-03-17T01:54:46;3.20;99.90
51500;DHT22;39101;53.478;6.158;2024-03-17T01:57:13;3.20;99.90
51500;DHT22;39101;53.478;6.158;2024-03-17T01:59:39;3.20;99.90
51500;DHT22;39101;53.478;6.158;2024-03-17T02:02:06;3.20;99.90
51500;DHT22;39101;53.478;6.158;2024-03-17T02:04:31;3.20;99.90
51500;DHT22;39101;53.478;6.158;2024-03-17T02:06:57;3.30;99.90
51500;DHT22;39101;53.478;6.158;2024-03-17T02:09:23;3.30;99.90
51500;DHT22;39101;53.478;6.158;2024-03-17T02:11:49;3.20;99.90
51500;DHT22;39101;53.478;6.158;2024-03-17T02:14:14;3.30;99.90
51500;DHT22;39101;53.478;6.158;2024-03-17T02:16:43;3.30;99.90
51500;DHT22;39101;53.478;6.158;2024-03-17T02:19:09;3.50;99.90
51500;DHT22;39101;53.478;6.158;2024-03-17T02:21:35;3.50;99.90
51500;DHT22;39101;53.478;6.158;2024-03-17T02:24:03;3.50;99.90
51500;DHT22;39101;53.478;6.158;2024-03-17T02:26:28;3.70;99.90
51500;DHT22;39101;53.478;6.158;2024-03-17T02:28:54;3.70;99.90
51500;DHT22;39101;53.478;6.158;2024-03-17T02:31:20;3.70;99.90
51500;DHT22;39101;53.478;6.158;2024-03-17T02:33:47;3.80;99.90
51500;DHT22;39101;53.478;6.158;2024-03-17T02:36:13;3.90;99.90
51500;DHT22;39101;53.478;6.158;2024-03-17T02:38:39;3.80;99.90
51500;DHT22;39101;53.478;6.158;2024-03-17T02:41:24;4.00;99.90
51500;DHT22;39101;53.478;6.158;2024-03-17T02:43:49;4.00;99.90
51500;DHT22;39101;53.478;6.158;2024-03-17T02:46:17;4.10;99.90
51500;DHT22;39101;53.478;6.158;2024-03-17T02:48:45;4.10;99.90
51500;DHT22;39101;53.478;6.158;2024-03-17T02:51:17;4.20;99.90
51500;DHT22;39101;53.478;6.158;2024-03-17T02:53:43;4.20;99.90
51500;DHT22;39101;53.478;6.158;2024-03-17T02:56:11;4.20;99.90
51500;DHT22;39101;53.478;6.158;2024-03-17T02:58:37;4.30;99.90
51500;DHT22;39101;53.478;6.158;2024-03-17T03:01:07;4.40;99.90
51500;DHT22;39101;53.478;6.158;2024-03-17T03:03:33;4.30;99.90
51500;DHT22;39101;53.478;6.158;2024-03-17T03:05:59;4.40;99.90
51500;DHT22;39101;53.478;6.158;2024-03-17T03:08:44;4.50;99.90
51500;DHT22;39101;53.478;6.158;2024-03-17T03:11:14;4.60;99.90
51500;DHT22;39101;53.478;6.158;2024-03-17T03:13:41;4.50;99.90
51500;DHT22;39101;53.478;6.158;2024-03-17T03:16:09;4.50;99.90
51500;DHT22;39101;53.478;6.158;2024-03-17T03:18:36;4.70;99.90
51500;DHT22;39101;53.478;6.158;2024-03-17T03:21:02;4.60;99.90
51500;DHT22;39101;53.478;6.158;2024-03-17T03:23:27;4.70;99.90
51500;DHT22;39101;53.478;6.158;2024-03-17T03:26:00;4.70;99.90
51500;DHT22;39101;53.478;6.158;2024-03-17T03:28:30;4.70;99.90
51500;DHT22;39101;53.478;6.158;2024-03-17T03:30:55;4.80;99.90
51500;DHT22;39101;53.478;6.158;2024-03-17T03:33:21;4.90;99.90
51500;DHT22;39101;53.478;6.158;2024-03-17T03:35:48;4.80;99.90
51500;DHT22;39101;53.478;6.158;2024-03-17T03:38:14;4.90;99.90
51500;DHT22;39101;53.478;6.158;2024-03-17T03:40:41;4.90;99.90
51500;DHT22;39101;53.478;6.158;2024-03-17T03:43:08;4.90;99.90
51500;DHT22;39101;53.478;6.158;2024-03-17T03:45:34;4.90;99.90
51500;DHT22;39101;53.478;6.158;2024-03-17T03:48:01;4.90;99.90
51500;DHT22;39101;53.478;6.158;2024-03-17T03:50:27;5.00;99.90
51500;DHT22;39101;53.478;6.158;2024-03-17T03:52:52;5.10;99.90
51500;DHT22;39101;53.478;6.158;2024-03-17T03:55:19;5.10;99.90
51500;DHT22;39101;53.478;6.158;2024-03-17T03:57:45;5.10;99.90
51500;DHT22;39101;53.478;6.158;2024-03-17T04:00:14;5.10;99.90
51500;DHT22;39101;53.478;6.158;2024-03-17T04:02:43;5.00;99.90
51500;DHT22;39101;53.478;6.158;2024-03-17T04:05:10;5.10;99.90
51500;DHT22;39101;53.478;6.158;2024-03-17T04:07:36;5.10;99.90
51500;DHT22;39101;53.478;6.158;2024-03-17T04:10:03;5.10;99.90
51500;DHT22;39101;53.478;6.158;2024-03-17T04:12:30;5.10;99.90
51500;DHT22;39101;53.478;6.158;2024-03-17T04:14:57;5.10;99.90
51500;DHT22;39101;53.478;6.158;2024-03-17T04:17:23;5.10;99.90
51500;DHT22;39101;53.478;6.158;2024-03-17T04:19:49;5.10;99.90
51500;DHT22;39101;53.478;6.158;2024-03-17T04:22:20;5.10;99.90
51500;DHT22;39101;53.478;6.158;2024-03-17T04:24:46;5.10;99.90
51500;DHT22;39101;53.478;6.158;2024-03-17T04:27:13;5.10;99.90
51500;DHT22;39101;53.478;6.158;2024-03-17T04:29:39;5.00;99.90
51500;DHT22;39101;53.478;6.158;2024-03-17T04:32:05;5.10;99.90
51500;DHT22;39101;53.478;6.158;2024-03-17T04:34:31;5.10;99.90
51500;DHT22;39101;53.478;6.158;2024-03-17T04:36:58;5.10;99.90
51500;DHT22;39101;53.478;6.158;2024-03-17T04:39:24;5.10;99.90
51500;DHT22;39101;53.478;6.158;2024-03-17T04:41:50;5.10;99.90
51500;DHT22;39101;53.478;6.158;2024-03-17T04:44:16;5.00;99.90
51500;DHT22;39101;53.478;6.158;2024-03-17T04:46:42;5.00;99.90
51500;DHT22;39101;53.478;6.158;2024-03-17T04:49:08;5.10;99.90
51500;DHT22;39101;53.478;6.158;2024-03-17T04:51:34;5.10;99.90
51500;DHT22;39101;53.478;6.158;2024-03-17T04:54:00;5.10;99.90
51500;DHT22;39101;53.478;6.158;2024-03-17T04:56:28;5.00;99.90
51500;DHT22;39101;53.478;6.158;2024-03-17T04:58:54;5.10;99.90
51500;DHT22;39101;53.478;6.158;2024-03-17T05:01:20;5.10;99.90
51500;DHT22;39101;53.478;6.158;2024-03-17T05:03:45;5.10;99.90
51500;DHT22;39101;53.478;6.158;2024-03-17T05:06:11;5.10;99.90
51500;DHT22;39101;53.478;6.158;2024-03-17T05:08:37;5.10;99.90
51500;DHT22;39101;53.478;6.158;2024-03-17T05:11:04;5.10;99.90
51500;DHT22;39101;53.478;6.158;2024-03-17T05:13:33;5.00;99.90
51500;DHT22;39101;53.478;6.158;2024-03-17T05:16:02;5.10;99.90
51500;DHT22;39101;53.478;6.158;2024-03-17T05:18:31;5.10;99.90
51500;DHT22;39101;53.478;6.158;2024-03-17T05:20:59;5.00;99.90
51500;DHT22;39101;53.478;6.158;2024-03-17T05:23:29;5.00;99.90
51500;DHT22;39101;53.478;6.158;2024-03-17T05:25:56;5.00;99.90
51500;DHT22;39101;53.478;6.158;2024-03-17T05:28:22;5.00;99.90
51500;DHT22;39101;53.478;6.158;2024-03-17T05:30:48;5.00;99.90
51500;DHT22;39101;53.478;6.158;2024-03-17T05:33:16;5.00;99.90
51500;DHT22;39101;53.478;6.158;2024-03-17T05:35:52;5.00;99.90
51500;DHT22;39101;53.478;6.158;2024-03-17T05:38:27;5.00;99.90
51500;DHT22;39101;53.478;6.158;2024-03-17T05:40:58;5.00;99.90
51500;DHT22;39101;53.478;6.158;2024-03-17T05:43:26;5.00;99.90
51500;DHT22;39101;53.478;6.158;2024-03-17T05:46:02;5.00;99.90
51500;DHT22;39101;53.478;6.158;2024-03-17T05:48:31;5.00;99.90
51500;DHT22;39101;53.478;6.158;2024-03-17T05:50:57;5.00;99.90
51500;DHT22;39101;53.478;6.158;2024-03-17T05:53:23;5.10;99.90
51500;DHT22;39101;53.478;6.158;2024-03-17T05:55:52;5.00;99.90
51500;DHT22;39101;53.478;6.158;2024-03-17T05:58:17;5.00;99.90
51500;DHT22;39101;53.478;6.158;2024-03-17T06:00:44;5.00;99.90
51500;DHT22;39101;53.478;6.158;2024-03-17T06:03:10;5.10;99.90
51500;DHT22;39101;53.478;6.158;2024-03-17T06:05:37;5.10;99.90
51500;DHT22;39101;53.478;6.158;2024-03-17T06:08:04;5.10;99.90
51500;DHT22;39101;53.478;6.158;2024-03-17T06:10:32;5.10;99.90
51500;DHT22;39101;53.478;6.158;2024-03-17T06:12:59;5.10;99.90
51500;DHT22;39101;53.478;6.158;2024-03-17T06:15:26;5.10;99.90
51500;DHT22;39101;53.478;6.158;2024-03-17T06:17:52;5.10;99.90
51500;DHT22;39101;53.478;6.158;2024-03-17T06:20:22;5.20;99.90
51500;DHT22;39101;53.478;6.158;2024-03-17T06:22:49;5.20;99.90
51500;DHT22;39101;53.478;6.158;2024-03-17T06:25:15;5.20;99.90
51500;DHT22;39101;53.478;6.158;2024-03-17T06:27:40;5.20;99.90
51500;DHT22;39101;53.478;6.158;2024-03-17T06:30:13;5.20;99.90
51500;DHT22;39101;53.478;6.158;2024-03-17T06:32:43;5.20;99.90
51500;DHT22;39101;53.478;6.158;2024-03-17T06:35:11;5.20;99.90
51500;DHT22;39101;53.478;6.158;2024-03-17T06:37:37;5.20;99.90
51500;DHT22;39101;53.478;6.158;2024-03-17T06:40:04;5.30;99.90
51500;DHT22;39101;53.478;6.158;2024-03-17T06:42:31;5.20;99.90
51500;DHT22;39101;53.478;6.158;2024-03-17T06:44:57;5.30;99.90
51500;DHT22;39101;53.478;6.158;2024-03-17T06:47:23;5.40;99.90
51500;DHT22;39101;53.478;6.158;2024-03-17T06:49:49;5.30;99.90
51500;DHT22;39101;53.478;6.158;2024-03-17T06:52:14;5.40;99.90
51500;DHT22;39101;53.478;6.158;2024-03-17T06:54:40;5.40;99.90
51500;DHT22;39101;53.478;6.158;2024-03-17T06:57:06;5.40;99.90
51500;DHT22;39101;53.478;6.158;2024-03-17T06:59:35;5.50;99.90
51500;DHT22;39101;53.478;6.158;2024-03-17T07:02:01;5.50;99.90
51500;DHT22;39101;53.478;6.158;2024-03-17T07:04:26;5.50;99.90
51500;DHT22;39101;53.478;6.158;2024-03-17T07:06:52;5.60;99.90
51500;DHT22;39101;53.478;6.158;2024-03-17T07:09:18;5.60;99.90
51500;DHT22;39101;53.478;6.158;2024-03-17T07:11:43;5.60;99.90
51500;DHT22;39101;53.478;6.158;2024-03-17T07:14:12;5.70;99.90
51500;DHT22;39101;53.478;6.158;2024-03-17T07:16:38;5.70;99.90
51500;DHT22;39101;53.478;6.158;2024-03-17T07:19:03;5.70;99.90
51500;DHT22;39101;53.478;6.158;2024-03-17T07:21:30;5.80;99.90
51500;DHT22;39101;53.478;6.158;2024-03-17T07:23:57;5.80;99.90
51500;DHT22;39101;53.478;6.158;2024-03-17T07:26:25;5.80;99.90
51500;DHT22;39101;53.478;6.158;2024-03-17T07:28:50;5.80;99.90
51500;DHT22;39101;53.478;6.158;2024-03-17T07:31:16;5.90;99.90
51500;DHT22;39101;53.478;6.158;2024-03-17T07:33:42;5.90;99.90
51500;DHT22;39101;53.478;6.158;2024-03-17T07:36:08;5.90;99.90
51500;DHT22;39101;53.478;6.158;2024-03-17T07:38:35;5.90;99.90
51500;DHT22;39101;53.478;6.158;2024-03-17T07:41:06;5.90;99.90
51500;DHT22;39101;53.478;6.158;2024-03-17T07:43:33;5.90;99.90
51500;DHT22;39101;53.478;6.158;2024-03-17T07:46:10;5.90;99.90
51500;DHT22;39101;53.478;6.158;2024-03-17T07:48:39;6.00;99.90
51500;DHT22;39101;53.478;6.158;2024-03-17T07:51:07;6.00;99.90
51500;DHT22;39101;53.478;6.158;2024-03-17T07:53:35;6.00;99.90
51500;DHT22;39101;53.478;6.158;2024-03-17T07:56:05;6.10;99.90
51500;DHT22;39101;53.478;6.158;2024-03-17T07:58:32;6.10;99.90
51500;DHT22;39101;53.478;6.158;2024-03-17T08:01:10;6.20;99.90
51500;DHT22;39101;53.478;6.158;2024-03-17T08:03:38;6.20;99.90
51500;DHT22;39101;53.478;6.158;2024-03-17T08:06:05;6.20;99.90
51500;DHT22;39101;53.478;6.158;2024-03-17T08:08:32;6.30;99.90
51500;DHT22;39101;53.478;6.158;2024-03-17T08:10:58;6.40;99.90
51500;DHT22;39101;53.478;6.158;2024-03-17T08:13:24;6.50;99.90
51500;DHT22;39101;53.478;6.158;2024-03-17T08:15:57;6.50;99.90
51500;DHT22;39101;53.478;6.158;2024-03-17T08:18:24;6.60;99.90
51500;DHT22;39101;53.478;6.158;2024-03-17T08:20:50;6.70;99.90
51500;DHT22;39101;53.478;6.158;2024-03-17T08:23:16;6.80;99.90
51500;DHT22;39101;53.478;6.158;2024-03-17T08:25:42;6.90;99.90
51500;DHT22;39101;53.478;6.158;2024-03-17T08:28:08;7.00;99.90
51500;DHT22;39101;53.478;6.158;2024-03-17T08:30:34;7.10;99.90
51500;DHT22;39101;53.478;6.158;2024-03-17T08:33:02;7.10;99.90
51500;DHT22;39101;53.478;6.158;2024-03-17T08:35:28;7.20;99.90
51500;DHT22;39101;53.478;6.158;2024-03-17T08:37:54;7.30;99.90
51500;DHT22;39101;53.478;6.158;2024-03-17T08:40:20;7.40;99.90
51500;DHT22;39101;53.478;6.158;2024-03-17T08:42:46;7.30;99.90
51500;DHT22;39101;53.478;6.158;2024-03-17T08:45:12;7.40;99.90
51500;DHT22;39101;53.478;6.158;2024-03-17T08:47:41;7.40;99.90
51500;DHT22;39101;53.478;6.158;2024-03-17T08:50:07;7.40;99.90
51500;DHT22;39101;53.478;6.158;2024-03-17T08:52:36;7.30;99.90
51500;DHT22;39101;53.478;6.158;2024-03-17T08:55:02;7.40;99.90
51500;DHT22;39101;53.478;6.158;2024-03-17T08:57:29;7.40;99.90
51500;DHT22;39101;53.478;6.158;2024-03-17T08:59:55;7.50;99.90
51500;DHT22;39101;53.478;6.158;2024-03-17T09:02:21;7.50;99.90
51500;DHT22;39101;53.478;6.158;2024-03-17T09:04:50;7.50;99.90
51500;DHT22;39101;53.478;6.158;2024-03-17T09:07:15;7.50;99.90
51500;DHT22;39101;53.478;6.158;2024-03-17T09:09:42;7.70;99.90
51500;DHT22;39101;53.478;6.158;2024-03-17T09:12:08;7.70;99.90
51500;DHT22;39101;53.478;6.158;2024-03-17T09:14:34;7.80;99.90
51500;DHT22;39101;53.478;6.158;2024-03-17T09:17:00;8.00;99.90
51500;DHT22;39101;53.478;6.158;2024-03-17T09:19:26;8.00;99.90
51500;DHT22;39101;53.478;6.158;2024-03-17T09:21:55;8.10;99.90
51500;DHT22;39101;53.478;6.158;2024-03-17T09:24:20;8.10;99.90
51500;DHT22;39101;53.478;6.158;2024-03-17T09:26:46;8.10;99.90
51500;DHT22;39101;53.478;6.158;2024-03-17T09:29:13;8.10;99.90
51500;DHT22;39101;53.478;6.158;2024-03-17T09:31:41;8.10;99.90
51500;DHT22;39101;53.478;6.158;2024-03-17T09:34:07;8.10;99.90
51500;DHT22;39101;53.478;6.158;2024-03-17T09:36:33;8.10;99.90
51500;DHT22;39101;53.478;6.158;2024-03-17T09:38:59;8.20;99.90
51500;DHT22;39101;53.478;6.158;2024-03-17T09:41:28;8.20;99.90
51500;DHT22;39101;53.478;6.158;2024-03-17T09:43:56;8.30;99.90
51500;DHT22;39101;53.478;6.158;2024-03-17T09:46:26;8.20;99.90
51500;DHT22;39101;53.478;6.158;2024-03-17T09:48:53;8.30;99.90
51500;DHT22;39101;53.478;6.158;2024-03-17T09:53:46;8.30;99.90
51500;DHT22;39101;53.478;6.158;2024-03-17T09:56:14;8.40;99.90
51500;DHT22;39101;53.478;6.158;2024-03-17T09:58:45;8.30;99.90
51500;DHT22;39101;53.478;6.158;2024-03-17T10:01:11;8.40;99.90
51500;DHT22;39101;53.478;6.158;2024-03-17T10:03:46;8.50;99.90
51500;DHT22;39101;53.478;6.158;2024-03-17T10:06:23;8.60;99.90
51500;DHT22;39101;53.478;6.158;2024-03-17T10:08:54;8.70;99.90
51500;DHT22;39101;53.478;6.158;2024-03-17T10:11:24;8.70;99.90
51500;DHT22;39101;53.478;6.158;2024-03-17T10:14:00;8.80;99.90
51500;DHT22;39101;53.478;6.158;2024-03-17T10:16:27;8.80;99.90
51500;DHT22;39101;53.478;6.158;2024-03-17T10:19:14;8.90;99.90
51500;DHT22;39101;53.478;6.158;2024-03-17T10:21:45;9.00;99.90
51500;DHT22;39101;53.478;6.158;2024-03-17T10:24:20;9.10;99.90
51500;DHT22;39101;53.478;6.158;2024-03-17T10:26:57;9.10;99.90
51500;DHT22;39101;53.478;6.158;2024-03-17T10:29:27;9.10;99.90
51500;DHT22;39101;53.478;6.158;2024-03-17T10:31:59;9.10;99.90
51500;DHT22;39101;53.478;6.158;2024-03-17T10:34:25;9.10;99.90
51500;DHT22;39101;53.478;6.158;2024-03-17T10:37:17;9.10;99.90
51500;DHT22;39101;53.478;6.158;2024-03-17T10:39:46;9.20;99.90
51500;DHT22;39101;53.478;6.158;2024-03-17T10:42:13;9.20;99.90
51500;DHT22;39101;53.478;6.158;2024-03-17T10:44:41;9.10;99.90
51500;DHT22;39101;53.478;6.158;2024-03-17T10:47:21;9.20;99.90
51500;DHT22;39101;53.478;6.158;2024-03-17T10:49:50;9.20;99.90
51500;DHT22;39101;53.478;6.158;2024-03-17T10:52:17;9.20;99.90
51500;DHT22;39101;53.478;6.158;2024-03-17T10:54:50;9.20;99.90
51500;DHT22;39101;53.478;6.158;2024-03-17T11:00:04;9.30;99.90
51500;DHT22;39101;53.478;6.158;2024-03-17T11:02:31;9.40;99.90
51500;DHT22;39101;53.478;6.158;2024-03-17T11:05:05;9.40;99.90
51500;DHT22;39101;53.478;6.158;2024-03-17T11:07:32;9.30;99.90
51500;DHT22;39101;53.478;6.158;2024-03-17T11:09:59;9.30;99.90
51500;DHT22;39101;53.478;6.158;2024-03-17T11:12:45;9.30;99.90
51500;DHT22;39101;53.478;6.158;2024-03-17T11:20:34;9.30;99.90
51500;DHT22;39101;53.478;6.158;2024-03-17T11:23:00;9.30;99.90
51500;DHT22;39101;53.478;6.158;2024-03-17T11:30:43;9.40;99.90
51500;DHT22;39101;53.478;6.158;2024-03-17T11:44:34;9.60;99.90
51500;DHT22;39101;53.478;6.158;2024-03-17T11:47:03;9.60;99.90
51500;DHT22;39101;53.478;6.158;2024-03-17T11:49:40;9.60;99.90
51500;DHT22;39101;53.478;6.158;2024-03-17T11:52:14;9.60;99.90
51500;DHT22;39101;53.478;6.158;2024-03-17T11:54:41;9.70;99.90
51500;DHT22;39101;53.478;6.158;2024-03-17T11:57:26;9.80;99.90
51500;DHT22;39101;53.478;6.158;2024-03-17T11:59:54;9.90;99.90
51500;DHT22;39101;53.478;6.158;2024-03-17T12:02:21;10.00;99.90
51500;DHT22;39101;53.478;6.158;2024-03-17T12:04:48;10.00;99.90
51500;DHT22;39101;53.478;6.158;2024-03-17T12:07:16;10.10;99.90
51500;DHT22;39101;53.478;6.158;2024-03-17T12:09:43;10.10;99.90
51500;DHT22;39101;53.478;6.158;2024-03-17T12:12:13;10.10;99.90
51500;DHT22;39101;53.478;6.158;2024-03-17T12:14:40;10.10;99.90
51500;DHT22;39101;53.478;6.158;2024-03-17T12:17:10;10.10;99.90
51500;DHT22;39101;53.478;6.158;2024-03-17T12:19:37;10.10;99.90
51500;DHT22;39101;53.478;6.158;2024-03-17T12:22:08;10.20;99.90
51500;DHT22;39101;53.478;6.158;2024-03-17T12:24:35;10.20;99.90
51500;DHT22;39101;53.478;6.158;2024-03-17T12:27:05;10.30;99.90
51500;DHT22;39101;53.478;6.158;2024-03-17T12:29:34;10.30;99.90
51500;DHT22;39101;53.478;6.158;2024-03-17T12:32:03;10.30;99.90
51500;DHT22;39101;53.478;6.158;2024-03-17T12:34:32;10.20;99.90
51500;DHT22;39101;53.478;6.158;2024-03-17T12:37:00;10.30;99.90
51500;DHT22;39101;53.478;6.158;2024-03-17T12:39:30;10.30;99.90
51500;DHT22;39101;53.478;6.158;2024-03-17T12:42:15;10.40;99.90
51500;DHT22;39101;53.478;6.158;2024-03-17T12:45:03;10.50;99.90
51500;DHT22;39101;53.478;6.158;2024-03-17T12:47:35;10.50;99.90
51500;DHT22;39101;53.478;6.158;2024-03-17T12:50:01;10.60;99.90
51500;DHT22;39101;53.478;6.158;2024-03-17T12:52:32;10.60;99.90
51500;DHT22;39101;53.478;6.158;2024-03-17T12:55:01;10.60;99.90
51500;DHT22;39101;53.478;6.158;2024-03-17T12:57:50;10.60;99.90
51500;DHT22;39101;53.478;6.158;2024-03-17T13:00:34;10.50;99.90
51500;DHT22;39101;53.478;6.158;2024-03-17T13:03:04;10.50;99.90
51500;DHT22;39101;53.478;6.158;2024-03-17T13:05:32;10.50;99.90
51500;DHT22;39101;53.478;6.158;2024-03-17T13:07:58;10.50;99.90
51500;DHT22;39101;53.478;6.158;2024-03-17T13:10:28;10.60;99.90
51500;DHT22;39101;53.478;6.158;2024-03-17T13:15:29;10.70;99.90
51500;DHT22;39101;53.478;6.158;2024-03-17T13:17:59;10.80;99.90
51500;DHT22;39101;53.478;6.158;2024-03-17T13:20:26;10.80;99.90
51500;DHT22;39101;53.478;6.158;2024-03-17T13:22:52;10.80;99.90
51500;DHT22;39101;53.478;6.158;2024-03-17T13:25:20;10.80;99.90
51500;DHT22;39101;53.478;6.158;2024-03-17T13:27:50;10.80;99.90
51500;DHT22;39101;53.478;6.158;2024-03-17T13:30:17;10.80;99.90
51500;DHT22;39101;53.478;6.158;2024-03-17T13:32:43;10.80;99.90
51500;DHT22;39101;53.478;6.158;2024-03-17T13:35:19;10.90;99.90
51500;DHT22;39101;53.478;6.158;2024-03-17T13:37:45;10.90;99.90
51500;DHT22;39101;53.478;6.158;2024-03-17T13:40:12;10.90;99.90
51500;DHT22;39101;53.478;6.158;2024-03-17T13:42:46;11.00;99.90
51500;DHT22;39101;53.478;6.158;2024-03-17T13:45:16;11.00;99.90
51500;DHT22;39101;53.478;6.158;2024-03-17T13:50:21;11.20;99.90
51500;DHT22;39101;53.478;6.158;2024-03-17T13:52:47;11.20;99.90
51500;DHT22;39101;53.478;6.158;2024-03-17T13:55:15;11.20;99.90
51500;DHT22;39101;53.478;6.158;2024-03-17T13:57:43;11.20;99.90
51500;DHT22;39101;53.478;6.158;2024-03-17T14:00:10;11.30;99.90
51500;DHT22;39101;53.478;6.158;2024-03-17T14:02:44;11.20;99.90
51500;DHT22;39101;53.478;6.158;2024-03-17T14:05:13;11.20;99.90
51500;DHT22;39101;53.478;6.158;2024-03-17T14:07:43;11.10;99.90
51500;DHT22;39101;53.478;6.158;2024-03-17T14:10:11;11.10;99.90
51500;DHT22;39101;53.478;6.158;2024-03-17T14:12:38;11.00;99.90
51500;DHT22;39101;53.478;6.158;2024-03-17T14:15:08;11.00;99.90
51500;DHT22;39101;53.478;6.158;2024-03-17T14:17:47;10.90;99.90
51500;DHT22;39101;53.478;6.158;2024-03-17T14:20:15;10.90;99.90
51500;DHT22;39101;53.478;6.158;2024-03-17T14:22:44;10.90;99.90
51500;DHT22;39101;53.478;6.158;2024-03-17T14:25:12;10.80;99.90
51500;DHT22;39101;53.478;6.158;2024-03-17T14:27:40;10.90;99.90
51500;DHT22;39101;53.478;6.158;2024-03-17T14:30:05;10.80;99.90
51500;DHT22;39101;53.478;6.158;2024-03-17T14:32:33;10.90;99.90
51500;DHT22;39101;53.478;6.158;2024-03-17T14:34:59;10.80;99.90
51500;DHT22;39101;53.478;6.158;2024-03-17T14:37:25;10.80;99.90
51500;DHT22;39101;53.478;6.158;2024-03-17T14:39:51;10.70;99.90
51500;DHT22;39101;53.478;6.158;2024-03-17T14:42:18;10.70;99.90
51500;DHT22;39101;53.478;6.158;2024-03-17T14:44:45;10.70;99.90
51500;DHT22;39101;53.478;6.158;2024-03-17T14:47:12;10.60;99.90
51500;DHT22;39101;53.478;6.158;2024-03-17T14:49:37;10.60;99.90
51500;DHT22;39101;53.478;6.158;2024-03-17T14:52:03;10.60;99.90
51500;DHT22;39101;53.478;6.158;2024-03-17T14:54:31;10.60;99.90
51500;DHT22;39101;53.478;6.158;2024-03-17T14:56:57;10.60;99.90
51500;DHT22;39101;53.478;6.158;2024-03-17T14:59:23;10.50;99.90
51500;DHT22;39101;53.478;6.158;2024-03-17T15:01:48;10.50;99.90
51500;DHT22;39101;53.478;6.158;2024-03-17T15:04:14;10.50;99.90
51500;DHT22;39101;53.478;6.158;2024-03-17T15:06:41;10.50;99.90
51500;DHT22;39101;53.478;6.158;2024-03-17T15:09:07;10.50;99.90
51500;DHT22;39101;53.478;6.158;2024-03-17T15:11:33;10.40;99.90
51500;DHT22;39101;53.478;6.158;2024-03-17T15:13:59;10.40;99.90
51500;DHT22;39101;53.478;6.158;2024-03-17T15:16:24;10.30;99.90
51500;DHT22;39101;53.478;6.158;2024-03-17T15:18:50;10.30;99.90
51500;DHT22;39101;53.478;6.158;2024-03-17T15:21:16;10.30;99.90
51500;DHT22;39101;53.478;6.158;2024-03-17T15:23:42;10.30;99.90
51500;DHT22;39101;53.478;6.158;2024-03-17T15:26:07;10.30;99.90
51500;DHT22;39101;53.478;6.158;2024-03-17T15:28:39;10.20;99.90
51500;DHT22;39101;53.478;6.158;2024-03-17T15:31:06;10.20;99.90
51500;DHT22;39101;53.478;6.158;2024-03-17T15:33:32;10.20;99.90
51500;DHT22;39101;53.478;6.158;2024-03-17T15:36:03;10.20;99.90
51500;DHT22;39101;53.478;6.158;2024-03-17T15:38:33;10.20;99.90
51500;DHT22;39101;53.478;6.158;2024-03-17T15:41:02;10.20;99.90
51500;DHT22;39101;53.478;6.158;2024-03-17T15:43:28;10.20;99.90
51500;DHT22;39101;53.478;6.158;2024-03-17T15:45:57;10.20;99.90
51500;DHT22;39101;53.478;6.158;2024-03-17T15:48:23;10.20;99.90
51500;DHT22;39101;53.478;6.158;2024-03-17T15:50:56;10.20;99.90
51500;DHT22;39101;53.478;6.158;2024-03-17T15:53:22;10.20;99.90
51500;DHT22;39101;53.478;6.158;2024-03-17T15:55:57;10.10;99.90
51500;DHT22;39101;53.478;6.158;2024-03-17T15:58:24;10.10;99.90
51500;DHT22;39101;53.478;6.158;2024-03-17T16:00:50;10.10;99.90
51500;DHT22;39101;53.478;6.158;2024-03-17T16:03:16;10.10;99.90
51500;DHT22;39101;53.478;6.158;2024-03-17T16:05:46;10.10;99.90
51500;DHT22;39101;53.478;6.158;2024-03-17T16:08:13;10.10;99.90
51500;DHT22;39101;53.478;6.158;2024-03-17T16:10:40;10.10;99.90
51500;DHT22;39101;53.478;6.158;2024-03-17T16:13:08;10.10;99.90
51500;DHT22;39101;53.478;6.158;2024-03-17T16:15:33;10.00;99.90
51500;DHT22;39101;53.478;6.158;2024-03-17T16:17:59;10.00;99.90
51500;DHT22;39101;53.478;6.158;2024-03-17T16:23:12;10.00;99.90